Time;durP1;ratioP1;P1;durP2;ratioP2;P2;SDS_P1;SDS_P2;PMS_P1;PMS_P2;Temp;Humidity;BMP_temperature;BMP_pressure;BME280_temperature;BME280_humidity;BME280_pressure;Samples;Min_cycle;Max_cycle;Signal;HPM_P1;HPM_P2
2023/03/22 00:01:45;;;;;;;0.10;0.10;;;;;;;4.50;81.88;99145.81;4988786;28;20081;-70
2023/03/22 00:04:11;;;;;;;0.10;0.10;;;;;;;4.43;82.26;99145.19;5001800;28;20056;-70
2023/03/22 00:06:37;;;;;;;0.10;0.10;;;;;;;4.48;82.50;99147.94;5003542;28;20050;-70
2023/03/22 00:09:03;;;;;;;0.10;0.10;;;;;;;4.50;82.49;99148.50;5002148;28;20074;-70
2023/03/22 00:11:29;;;;;;;0.10;0.10;;;;;;;4.57;82.19;99162.69;5006167;28;20046;-70
2023/03/22 00:13:57;;;;;;;0.10;0.10;;;;;;;4.60;82.10;99151.38;5002910;28;20062;-70
2023/03/22 00:16:24;;;;;;;0.10;0.10;;;;;;;4.67;81.83;99151.19;5001595;28;20061;-70
2023/03/22 00:18:50;;;;;;;0.10;0.10;;;;;;;4.62;81.76;99153.84;5003943;28;20552;-70
2023/03/22 00:21:17;;;;;;;0.10;0.10;;;;;;;4.46;82.46;99152.78;5002108;28;20065;-70
2023/03/22 00:23:43;;;;;;;0.10;0.10;;;;;;;4.37;83.02;99150.53;5005866;28;20042;-70
2023/03/22 00:26:12;;;;;;;0.10;0.10;;;;;;;4.32;83.36;99147.75;5004686;28;20454;-70
2023/03/22 00:28:38;;;;;;;0.10;0.10;;;;;;;4.39;83.41;99147.56;5008013;28;20046;-70
2023/03/22 00:31:09;;;;;;;0.10;0.10;;;;;;;4.30;83.54;99144.47;5006796;28;20038;-70
2023/03/22 00:33:36;;;;;;;0.10;0.10;;;;;;;4.32;83.98;99153.16;5005850;28;20052;-70
2023/03/22 00:36:05;;;;;;;0.10;0.10;;;;;;;4.25;83.97;99150.63;4988991;28;20049;-70
2023/03/22 00:38:37;;;;;;;0.10;0.10;;;;;;;4.28;84.13;99159.31;5005156;28;20136;-70
2023/03/22 00:41:06;;;;;;;0.10;0.10;;;;;;;4.17;84.51;99161.06;5006422;28;20101;-69
2023/03/22 00:43:32;;;;;;;0.10;0.10;;;;;;;4.24;84.68;99183.38;4991777;28;20046;-70
2023/03/22 00:45:58;;;;;;;0.10;0.10;;;;;;;4.23;84.56;99173.59;5008448;28;20074;-75
2023/03/22 00:48:26;;;;;;;0.10;0.10;;;;;;;4.22;84.81;99180.09;5006157;28;20049;-74
2023/03/22 00:50:52;;;;;;;;;;;;;;;4.23;84.73;99179.81;5009250;28;20042;-75
2023/03/22 00:53:18;;;;;;;0.10;0.10;;;;;;;4.24;84.57;99183.38;5005562;28;19947;-75
2023/03/22 00:55:44;;;;;;;0.10;0.10;;;;;;;4.23;84.42;99181.72;5005839;28;20857;-74
2023/03/22 00:58:10;;;;;;;0.10;0.10;;;;;;;4.20;84.41;99174.91;5008829;28;20046;-74
2023/03/22 01:00:36;;;;;;;0.22;0.10;;;;;;;4.22;84.37;99178.19;5009044;28;20053;-74
2023/03/22 01:03:03;;;;;;;0.10;0.10;;;;;;;4.22;84.32;99186.31;5007502;28;20072;-74
2023/03/22 01:05:32;;;;;;;0.10;0.10;;;;;;;4.21;84.78;99192.78;4989039;28;20057;-74
2023/03/22 01:08:05;;;;;;;0.10;0.10;;;;;;;4.20;84.82;99188.44;5007210;28;20061;-75
2023/03/22 01:10:31;;;;;;;0.10;0.10;;;;;;;4.20;84.66;99187.59;5007330;28;20535;-74
2023/03/22 01:12:57;;;;;;;0.10;0.10;;;;;;;4.19;84.56;99192.22;5002527;28;20463;-74
2023/03/22 01:15:24;;;;;;;0.10;0.10;;;;;;;4.16;84.49;99190.00;4972995;28;20145;-74
2023/03/22 01:17:51;;;;;;;0.10;0.10;;;;;;;4.20;84.65;99193.03;5006339;28;20472;-75
2023/03/22 01:20:17;;;;;;;0.10;0.10;;;;;;;4.24;84.23;99196.91;5008515;28;20153;-74
2023/03/22 01:22:45;;;;;;;0.10;0.10;;;;;;;4.23;84.13;99203.38;5002891;28;20054;-74
2023/03/22 01:25:12;;;;;;;0.10;0.10;;;;;;;4.25;83.74;99202.03;5006536;28;20042;-75
2023/03/22 01:27:38;;;;;;;0.10;0.10;;;;;;;4.27;83.73;99201.81;4970901;28;20046;-75
2023/03/22 01:30:06;;;;;;;0.10;0.10;;;;;;;4.31;83.45;99211.06;5005583;28;20104;-75
2023/03/22 01:32:32;;;;;;;;;;;;;;;4.30;83.33;99212.13;5009398;28;20613;-74
2023/03/22 01:34:58;;;;;;;0.10;0.10;;;;;;;4.34;83.04;99209.75;5006749;28;19987;-75
2023/03/22 01:37:29;;;;;;;0.10;0.10;;;;;;;4.30;83.03;99214.84;5006745;28;20060;-75
2023/03/22 01:39:57;;;;;;;0.10;0.10;;;;;;;4.25;83.53;99217.47;4984363;28;20053;-74
2023/03/22 01:42:25;;;;;;;0.10;0.10;;;;;;;4.22;83.89;99232.31;5006786;28;20057;-74
2023/03/22 01:45:31;;;;;;;0.10;0.10;;;;;;;4.19;84.01;99229.28;5023789;28;20046;-75
2023/03/22 01:48:00;;;;;;;0.10;0.10;;;;;;;4.17;84.38;99247.66;4985191;28;20050;-74
2023/03/22 01:50:28;;;;;;;0.10;0.10;;;;;;;4.20;84.49;99236.31;4984896;28;20054;-74
2023/03/22 01:52:56;;;;;;;0.10;0.10;;;;;;;4.18;84.31;99243.88;4985091;28;20124;-75
2023/03/22 01:55:28;;;;;;;0.10;0.10;;;;;;;4.09;84.59;99248.88;4985354;28;20113;-74
2023/03/22 01:58:06;;;;;;;0.10;0.10;;;;;;;4.05;84.97;99243.13;5004931;28;20041;-75
2023/03/22 02:00:43;;;;;;;0.10;0.10;;;;;;;4.09;85.15;99249.72;5006606;28;20140;-74
2023/03/22 02:03:34;;;;;;;0.10;0.10;;;;;;;4.11;84.85;99255.69;4992176;28;20551;-74
2023/03/22 02:06:00;;;;;;;0.15;0.10;;;;;;;4.07;85.06;99242.88;5021982;28;20073;-74
2023/03/22 02:08:28;;;;;;;0.10;0.10;;;;;;;4.09;84.78;99249.72;5002765;28;20050;-74
2023/03/22 02:11:00;;;;;;;0.10;0.10;;;;;;;4.02;84.96;99246.31;5004624;28;20100;-74
2023/03/22 02:13:41;;;;;;;0.10;0.10;;;;;;;4.01;84.62;99250.09;5005038;28;20053;-74
2023/03/22 02:16:39;;;;;;;0.10;0.10;;;;;;;4.05;84.66;99256.66;5011076;28;20073;-75
2023/03/22 02:20:06;;;;;;;0.10;0.10;;;;;;;4.00;84.78;99259.28;5003897;28;20050;-74
2023/03/22 02:23:16;;;;;;;0.10;0.10;;;;;;;3.90;85.35;99246.41;4949171;28;20104;-74
2023/03/22 02:26:07;;;;;;;0.10;0.10;;;;;;;3.96;85.30;99255.44;5023013;28;20116;-75
2023/03/22 02:28:41;;;;;;;0.10;0.10;;;;;;;3.96;85.25;99264.34;5004819;28;20058;-75
2023/03/22 02:31:45;;;;;;;0.10;0.10;;;;;;;3.94;85.50;99257.56;5004858;28;20045;-75
2023/03/22 02:34:44;;;;;;;0.10;0.10;;;;;;;3.94;85.53;99265.69;4985863;28;20156;-75
2023/03/22 02:37:37;;;;;;;0.10;0.10;;;;;;;3.96;85.08;99268.97;5001695;28;20064;-75
2023/03/22 02:40:11;;;;;;;0.10;0.10;;;;;;;3.95;85.00;99270.81;5003534;28;20137;-75
2023/03/22 02:42:46;;;;;;;0.10;0.10;;;;;;;3.93;85.11;99269.44;5006713;28;20061;-76
2023/03/22 02:45:16;;;;;;;0.10;0.10;;;;;;;3.98;84.77;99274.94;4971650;28;20464;-75
2023/03/22 02:47:53;;;;;;;0.10;0.10;;;;;;;3.97;84.74;99276.81;4990363;28;20504;-75
2023/03/22 02:50:24;;;;;;;0.10;0.10;;;;;;;4.03;84.40;99287.75;4986324;28;20054;-75
2023/03/22 02:52:54;;;;;;;0.10;0.10;;;;;;;4.01;84.18;99285.28;5005635;28;20049;-75
2023/03/22 02:55:28;;;;;;;0.10;0.10;;;;;;;3.99;83.91;99292.00;5003514;28;20056;-75
2023/03/22 02:57:59;;;;;;;0.10;0.10;;;;;;;3.99;84.19;99290.09;5003482;28;20054;-75
2023/03/22 03:00:27;;;;;;;0.10;0.10;;;;;;;3.97;84.19;99300.34;4998644;28;20050;-75
2023/03/22 03:02:58;;;;;;;0.10;0.10;;;;;;;3.97;84.40;99300.34;4966799;28;20526;-75
2023/03/22 03:05:29;;;;;;;0.10;0.10;;;;;;;3.93;84.41;99293.78;4983675;28;20492;-74
2023/03/22 03:07:59;;;;;;;0.10;0.10;;;;;;;3.89;84.75;99304.28;4984382;28;20521;-74
2023/03/22 03:10:28;;;;;;;0.10;0.10;;;;;;;3.88;85.15;99304.50;4984893;28;20050;-74
2023/03/22 03:12:55;;;;;;;0.10;0.10;;;;;;;3.88;85.17;99307.22;4985088;28;20069;-74
2023/03/22 03:15:22;;;;;;;0.10;0.10;;;;;;;3.91;85.16;99309.44;4983802;28;20050;-74
2023/03/22 03:18:05;;;;;;;0.10;0.10;;;;;;;3.96;84.80;99312.25;4998959;28;20414;-75
2023/03/22 03:20:41;;;;;;;0.10;0.10;;;;;;;3.94;84.97;99315.19;4982581;28;20734;-74
2023/03/22 03:23:19;;;;;;;0.10;0.10;;;;;;;3.90;85.27;99316.72;4985080;28;20053;-76
2023/03/22 03:25:56;;;;;;;0.10;0.10;;;;;;;3.83;86.13;99318.78;4985787;28;20054;-75
2023/03/22 03:28:37;;;;;;;0.10;0.10;;;;;;;3.77;87.16;99325.97;4954858;28;20109;-75
2023/03/22 03:31:12;;;;;;;0.10;0.10;;;;;;;3.63;88.13;99322.72;4971373;28;20053;-76
2023/03/22 03:33:48;;;;;;;0.10;0.10;;;;;;;3.60;88.87;99333.22;4984278;28;20429;-75
2023/03/22 03:36:17;;;;;;;0.10;0.10;;;;;;;3.61;89.45;99324.84;4984228;28;20474;-75
2023/03/22 03:38:47;;;;;;;0.10;0.10;;;;;;;3.60;89.90;99328.59;4984376;28;20589;-74
2023/03/22 03:41:17;;;;;;;0.10;0.10;;;;;;;3.59;90.26;99331.53;4986388;28;20449;-75
2023/03/22 03:43:46;;;;;;;0.10;0.10;;;;;;;3.65;90.29;99336.00;4994482;28;20049;-75
2023/03/22 03:46:14;;;;;;;0.10;0.10;;;;;;;3.69;90.11;99343.41;5004831;28;20061;-75
2023/03/22 03:48:44;;;;;;;0.10;0.10;;;;;;;3.77;90.05;99338.66;5006359;28;20041;-75
2023/03/22 03:51:11;;;;;;;0.10;0.10;;;;;;;3.79;89.99;99340.06;5005509;28;20080;-70
2023/03/22 03:53:37;;;;;;;0.10;0.10;;;;;;;3.91;89.14;99350.84;4984926;28;20077;-70
2023/03/22 03:56:04;;;;;;;0.10;0.10;;;;;;;3.93;88.76;99353.31;4999857;28;20516;-69
2023/03/22 03:58:38;;;;;;;0.10;0.10;;;;;;;3.99;88.27;99349.63;5006288;28;20096;-69
2023/03/22 04:01:04;;;;;;;;;;;;;;;4.01;87.78;99361.03;4988314;28;20056;-69
2023/03/22 04:03:49;;;;;;;0.10;0.10;;;;;;;4.05;87.25;99356.75;5006633;28;20354;-69
2023/03/22 04:06:33;;;;;;;0.10;0.10;;;;;;;4.08;86.43;99358.16;4991838;28;20179;-69
2023/03/22 04:09:04;;;;;;;0.10;0.10;;;;;;;4.02;85.74;99359.97;4988505;28;20046;-69
2023/03/22 04:11:35;;;;;;;0.20;0.20;;;;;;;4.00;85.70;99361.28;4985348;28;20107;-70
2023/03/22 04:14:04;;;;;;;0.10;0.10;;;;;;;3.97;85.28;99365.28;4991676;28;20172;-69
2023/03/22 04:16:30;;;;;;;;;;;;;;;4.01;85.34;99369.13;4973496;28;20101;-70
2023/03/22 04:18:56;;;;;;;0.10;0.10;;;;;;;4.07;84.97;99370.91;4977654;28;19925;-70
2023/03/22 04:21:22;;;;;;;0.10;0.10;;;;;;;4.15;84.86;99366.97;5004382;28;20054;-70
2023/03/22 04:24:00;;;;;;;0.10;0.10;;;;;;;4.22;84.37;99373.03;5004369;28;20089;-70
2023/03/22 04:26:29;;;;;;;0.10;0.10;;;;;;;4.25;83.97;99367.13;4989423;28;20510;-70
2023/03/22 04:29:15;;;;;;;0.10;0.10;;;;;;;4.27;83.81;99372.31;4987361;28;20113;-70
2023/03/22 04:31:46;;;;;;;0.10;0.10;;;;;;;4.32;83.65;99379.72;4987695;28;20574;-70
2023/03/22 04:34:26;;;;;;;0.10;0.10;;;;;;;4.30;83.21;99382.66;4986375;28;20506;-70
2023/03/22 04:37:02;;;;;;;0.10;0.10;;;;;;;4.31;83.53;99388.91;4992011;28;20048;-70
2023/03/22 04:39:30;;;;;;;0.10;0.10;;;;;;;4.35;83.52;99390.84;4982461;28;20553;-70
2023/03/22 04:42:17;;;;;;;0.10;0.10;;;;;;;4.25;83.13;99366.34;5005503;28;20133;-69
2023/03/22 04:44:46;;;;;;;0.10;0.10;;;;;;;4.50;82.71;99394.91;5010085;28;20045;-69
2023/03/22 04:47:12;;;;;;;0.10;0.10;;;;;;;4.54;82.51;99401.50;5007985;28;20452;-70
2023/03/22 04:49:38;;;;;;;0.10;0.10;;;;;;;4.60;81.82;99405.91;4989671;28;20502;-70
2023/03/22 04:52:05;;;;;;;0.10;0.10;;;;;;;4.48;81.59;99414.13;5005390;28;20517;-70
2023/03/22 04:54:35;;;;;;;0.10;0.10;;;;;;;4.40;81.88;99423.44;5009657;28;20547;-70
2023/03/22 04:57:02;;;;;;;0.10;0.10;;;;;;;4.33;81.78;99421.97;4639446;28;10000214;-70
2023/03/22 04:59:34;;;;;;;0.10;0.10;;;;;;;4.28;81.60;99429.97;4988694;28;20055;-70
2023/03/22 05:02:01;;;;;;;0.10;0.10;;;;;;;4.23;81.45;99428.00;5002494;28;20100;-70
2023/03/22 05:04:33;;;;;;;0.10;0.10;;;;;;;4.19;81.60;99424.13;4988251;28;20081;-70
2023/03/22 05:07:06;;;;;;;0.10;0.10;;;;;;;4.17;81.49;99426.25;4988332;28;20464;-70
2023/03/22 05:09:43;;;;;;;0.10;0.10;;;;;;;4.22;81.50;99439.91;4998691;28;20115;-69
2023/03/22 05:12:09;;;;;;;0.10;0.10;;;;;;;4.20;81.42;99432.00;4996735;28;20046;-69
2023/03/22 05:14:46;;;;;;;0.10;0.10;;;;;;;4.24;81.44;99437.78;4978938;28;20564;-69
2023/03/22 05:17:17;;;;;;;0.10;0.10;;;;;;;4.24;81.33;99437.78;4991479;28;20047;-74
2023/03/22 05:19:44;;;;;;;0.10;0.10;;;;;;;4.29;81.23;99439.72;4978007;28;20123;-74
2023/03/22 05:22:12;;;;;;;0.10;0.10;;;;;;;4.24;81.15;99441.28;4993554;28;20097;-74
2023/03/22 05:24:45;;;;;;;0.10;0.10;;;;;;;4.24;81.19;99445.88;5002225;28;20042;-75
2023/03/22 05:27:29;;;;;;;0.10;0.10;;;;;;;4.16;81.18;99447.09;4980418;28;20060;-74
2023/03/22 05:29:56;;;;;;;0.10;0.10;;;;;;;4.17;81.38;99456.00;4976951;28;20568;-75
2023/03/22 05:32:31;;;;;;;0.10;0.10;;;;;;;4.14;81.19;99451.09;4975166;28;20046;-76
2023/03/22 05:35:02;;;;;;;0.10;0.10;;;;;;;4.26;81.17;99470.81;4992994;28;20137;-76
2023/03/22 05:37:34;;;;;;;0.10;0.10;;;;;;;4.33;80.71;99471.50;4971020;28;20113;-75
2023/03/22 05:40:01;;;;;;;0.10;0.10;;;;;;;4.38;80.37;99465.34;5003467;28;20512;-75
2023/03/22 05:42:35;;;;;;;0.10;0.10;;;;;;;4.47;79.76;99479.31;4981777;28;20042;-75
2023/03/22 05:45:08;;;;;;;0.10;0.10;;;;;;;4.49;79.08;99478.03;4987546;28;20135;-75
2023/03/22 05:47:38;;;;;;;0.10;0.10;;;;;;;4.54;79.01;99482.72;4972984;28;20046;-76
2023/03/22 05:50:14;;;;;;;0.10;0.10;;;;;;;4.58;78.41;99492.00;4983153;28;20592;-75
2023/03/22 05:52:41;;;;;;;0.10;0.10;;;;;;;4.59;77.83;99490.09;4990054;28;20077;-75
2023/03/22 05:55:18;;;;;;;0.10;0.10;;;;;;;4.64;76.88;99496.44;4998847;28;20060;-75
2023/03/22 05:57:46;;;;;;;0.10;0.10;;;;;;;4.62;76.22;99495.84;4990688;28;20066;-75
2023/03/22 06:00:15;;;;;;;0.10;0.10;;;;;;;4.53;75.72;99503.56;5004684;28;20057;-75
2023/03/22 06:03:04;;;;;;;0.10;0.10;;;;;;;4.47;75.45;99498.28;5004798;28;20069;-70
2023/03/22 06:05:36;;;;;;;0.10;0.10;;;;;;;4.49;75.11;99509.69;4994134;28;20057;-70
2023/03/22 06:08:03;;;;;;;0.10;0.10;;;;;;;4.43;74.41;99511.47;4999045;28;20049;-71
2023/03/22 06:10:29;;;;;;;0.10;0.10;;;;;;;4.39;73.65;99508.44;5004368;28;20057;-70
2023/03/22 06:12:55;;;;;;;0.10;0.10;;;;;;;4.35;73.49;99519.97;5004737;28;20438;-70
2023/03/22 06:15:27;;;;;;;0.10;0.10;;;;;;;4.32;73.58;99520.47;5003866;28;20049;-75
2023/03/22 06:17:53;;;;;;;0.10;0.10;;;;;;;4.28;73.54;99524.69;5005202;28;20073;-75
2023/03/22 06:20:25;;;;;;;0.32;0.10;;;;;;;4.28;73.51;99530.13;4999237;28;20092;-75
2023/03/22 06:22:58;;;;;;;0.10;0.10;;;;;;;4.28;73.38;99519.28;4988565;28;20089;-75
2023/03/22 06:25:24;;;;;;;0.10;0.10;;;;;;;4.31;73.07;99522.34;4987766;28;20058;-75
2023/03/22 06:27:51;;;;;;;0.10;0.10;;;;;;;4.37;73.03;99526.81;4987059;28;20182;-75
2023/03/22 06:30:18;;;;;;;0.10;0.10;;;;;;;4.45;72.75;99530.19;4987584;28;20050;-70
2023/03/22 06:33:04;;;;;;;0.10;0.10;;;;;;;4.51;72.16;99521.09;4954684;28;20517;-71
2023/03/22 06:35:35;;;;;;;0.10;0.10;;;;;;;4.56;71.97;99534.75;4956388;28;20057;-70
2023/03/22 06:38:02;;;;;;;0.10;0.10;;;;;;;4.58;71.77;99524.50;4986363;28;20050;-70
2023/03/22 06:40:28;;;;;;;0.13;0.10;;;;;;;4.59;71.47;99534.25;4986913;28;20081;-70
2023/03/22 06:42:54;;;;;;;0.10;0.10;;;;;;;4.55;71.59;99530.41;4994512;28;20049;-75
2023/03/22 06:45:21;;;;;;;0.10;0.10;;;;;;;4.62;71.45;99535.66;4991577;28;20042;-75
2023/03/22 06:47:49;;;;;;;0.10;0.10;;;;;;;4.60;71.25;99530.47;5005791;28;20052;-75
2023/03/22 06:50:46;;;;;;;0.10;0.10;;;;;;;4.60;70.96;99537.78;4997043;28;20412;-75
2023/03/22 06:53:17;;;;;;;0.10;0.10;;;;;;;4.62;70.68;99535.66;5005554;28;20088;-75
2023/03/22 06:55:43;;;;;;;0.10;0.10;;;;;;;4.63;70.43;99534.59;5006137;28;20054;-70
2023/03/22 06:58:22;;;;;;;0.10;0.10;;;;;;;4.67;70.07;99535.75;5006138;28;20045;-70
2023/03/22 07:00:48;;;;;;;0.20;0.20;;;;;;;4.86;69.26;99541.81;5007797;28;20405;-71
2023/03/22 07:03:17;;;;;;;0.10;0.10;;;;;;;5.01;68.36;99537.72;5003823;28;20069;-73
2023/03/22 07:05:50;;;;;;;0.20;0.20;;;;;;;5.22;67.50;99555.13;5005675;28;20049;-70
2023/03/22 07:08:17;;;;;;;0.20;0.20;;;;;;;5.35;66.40;99537.75;4992141;28;20267;-71
2023/03/22 07:10:50;;;;;;;0.20;0.20;;;;;;;5.59;65.30;99542.97;5001842;28;20051;-71
2023/03/22 07:13:18;;;;;;;0.20;0.20;;;;;;;5.78;64.60;99547.09;4988400;28;20069;-76
2023/03/22 07:15:46;;;;;;;;;;;;;;;5.90;63.74;99546.97;4989107;28;20046;-75
2023/03/22 07:18:32;;;;;;;0.20;0.20;;;;;;;5.89;63.04;99539.91;4993836;28;19932;-75
2023/03/22 07:20:59;;;;;;;0.20;0.20;;;;;;;6.03;62.80;99553.97;4986093;28;20383;-75
2023/03/22 07:23:25;;;;;;;;;;;;;;;6.13;62.48;99552.47;4993709;28;20050;-75
2023/03/22 07:25:54;;;;;;;0.13;0.13;;;;;;;6.02;62.22;99557.75;4993699;28;19979;-75
2023/03/22 07:28:32;;;;;;;0.20;0.20;;;;;;;6.04;62.36;99552.06;4993736;28;20144;-76
2023/03/22 07:31:02;;;;;;;0.20;0.20;;;;;;;6.55;60.80;99556.50;4985583;28;20068;-76
2023/03/22 07:33:32;;;;;;;0.20;0.20;;;;;;;7.19;59.01;99555.81;4990516;28;20046;-75
2023/03/22 07:36:00;;;;;;;0.20;0.20;;;;;;;7.81;56.93;99569.06;4989398;28;20141;-75
2023/03/22 07:38:26;;;;;;;0.25;0.22;;;;;;;8.25;55.13;99561.69;4969207;28;20137;-76
2023/03/22 07:40:55;;;;;;;0.30;0.30;;;;;;;8.78;53.92;99564.38;4986623;28;20109;-76
2023/03/22 07:43:26;;;;;;;0.30;0.30;;;;;;;9.21;52.81;99562.28;4986383;28;20421;-76
2023/03/22 07:46:03;;;;;;;0.30;0.30;;;;;;;9.48;51.64;99563.91;4999223;28;20049;-76
2023/03/22 07:48:48;;;;;;;0.20;0.20;;;;;;;9.68;50.46;99567.72;4988526;28;20576;-76
2023/03/22 07:51:34;;;;;;;0.35;0.30;;;;;;;9.54;49.92;99567.44;4998099;28;20042;-76
2023/03/22 07:54:00;;;;;;;;;;;;;;;9.20;50.80;99567.97;4993710;28;20074;-76
2023/03/22 07:56:26;;;;;;;0.20;0.20;;;;;;;8.74;51.31;99568.69;4987247;28;19932;-76
2023/03/22 07:58:53;;;;;;;0.20;0.20;;;;;;;8.42;52.47;99566.91;4994751;28;20112;-75
2023/03/22 08:01:19;;;;;;;0.40;0.20;;;;;;;8.31;52.65;99564.16;4994181;28;20046;-76
2023/03/22 08:04:11;;;;;;;0.30;0.30;;;;;;;8.19;52.94;99571.72;4996124;28;20111;-76
2023/03/22 08:06:59;;;;;;;0.13;0.13;;;;;;;8.33;52.35;99572.91;4997088;28;20046;-76
2023/03/22 08:09:27;;;;;;;0.20;0.20;;;;;;;7.98;52.78;99574.34;4993653;28;20528;-75
2023/03/22 08:11:53;;;;;;;0.20;0.20;;;;;;;7.86;53.38;99574.53;5002509;28;20092;-76
2023/03/22 08:14:20;;;;;;;0.20;0.20;;;;;;;7.65;53.46;99568.16;5000573;28;20305;-70
2023/03/22 08:16:49;;;;;;;0.30;0.30;;;;;;;7.42;54.09;99578.28;5001241;28;20141;-75
2023/03/22 08:19:15;;;;;;;0.20;0.20;;;;;;;7.47;54.39;99577.53;4983010;28;20049;-75
2023/03/22 08:21:42;;;;;;;0.20;0.20;;;;;;;7.56;54.31;99572.41;4992070;28;20254;-71
2023/03/22 08:24:20;;;;;;;0.20;0.20;;;;;;;7.76;53.95;99579.91;4991925;28;20716;-70
2023/03/22 08:26:58;;;;;;;0.55;0.30;;;;;;;8.02;53.40;99583.63;4991093;28;20045;-70
2023/03/22 08:29:38;;;;;;;0.20;0.20;;;;;;;8.21;52.65;99575.84;4975686;28;20074;-70
2023/03/22 08:32:05;;;;;;;0.20;0.20;;;;;;;8.38;52.18;99586.53;4985634;28;20054;-70
2023/03/22 08:34:35;;;;;;;0.20;0.20;;;;;;;8.43;51.74;99576.72;5006744;28;20050;-70
2023/03/22 08:37:03;;;;;;;0.30;0.30;;;;;;;8.19;51.80;99561.66;5007498;28;20073;-71
2023/03/22 08:39:31;;;;;;;0.22;0.22;;;;;;;8.56;51.24;99586.38;5008567;28;20054;-75
2023/03/22 08:42:26;;;;;;;0.30;0.30;;;;;;;9.01;50.03;99586.78;4995312;28;20054;-75
2023/03/22 08:44:53;;;;;;;0.20;0.20;;;;;;;9.30;48.79;99587.09;4991882;28;20054;-75
2023/03/22 08:47:21;;;;;;;0.30;0.30;;;;;;;9.29;48.77;99590.94;4987919;28;20052;-75
2023/03/22 08:49:52;;;;;;;0.20;0.20;;;;;;;9.13;49.12;99581.88;4975101;28;20042;-70
2023/03/22 08:52:23;;;;;;;0.20;0.20;;;;;;;9.16;49.03;99586.78;4989460;28;20129;-70
2023/03/22 08:55:02;;;;;;;0.28;0.28;;;;;;;9.06;48.85;99593.06;4990129;28;20097;-70
2023/03/22 08:57:57;;;;;;;0.22;0.22;;;;;;;9.24;48.74;99582.72;4969280;28;20338;-71
2023/03/22 09:00:43;;;;;;;0.30;0.30;;;;;;;9.88;47.42;99587.91;4991532;28;20156;-70
2023/03/22 09:03:25;;;;;;;0.40;0.40;;;;;;;10.14;46.71;99585.94;4961132;28;20050;-70
2023/03/22 09:05:52;;;;;;;0.32;0.32;;;;;;;10.27;46.15;99591.91;4999765;28;20045;-70
2023/03/22 09:08:19;;;;;;;0.30;0.30;;;;;;;9.86;46.81;99584.63;5005384;28;20108;-71
2023/03/22 09:10:50;;;;;;;0.30;0.30;;;;;;;9.74;47.00;99588.47;4994678;28;20412;-70
2023/03/22 09:13:19;;;;;;;0.20;0.20;;;;;;;9.38;47.97;99587.63;5004308;28;20073;-71
2023/03/22 09:15:52;;;;;;;0.20;0.20;;;;;;;9.41;48.02;99596.09;5002830;28;20141;-71
2023/03/22 09:18:23;;;;;;;0.20;0.20;;;;;;;9.01;48.38;99593.06;5002676;28;20050;-70
2023/03/22 09:20:51;;;;;;;0.20;0.20;;;;;;;8.51;49.82;99579.81;4989084;28;20070;-70
2023/03/22 09:23:20;;;;;;;0.20;0.20;;;;;;;8.14;50.12;99564.34;4993787;28;20050;-70
2023/03/22 09:25:48;;;;;;;0.20;0.20;;;;;;;8.05;50.86;99599.44;4982475;28;20623;-70
2023/03/22 09:28:18;;;;;;;0.20;0.20;;;;;;;8.07;51.12;99580.13;5005427;28;20097;-70
2023/03/22 09:30:45;;;;;;;0.28;0.28;;;;;;;8.50;50.20;99596.44;5021660;28;20045;-70
2023/03/22 09:33:13;;;;;;;0.20;0.20;;;;;;;8.91;49.31;99598.47;4982185;28;20128;-75
2023/03/22 09:35:42;;;;;;;0.30;0.30;;;;;;;8.96;48.97;99600.41;5006971;28;20050;-75
2023/03/22 09:38:11;;;;;;;0.20;0.20;;;;;;;8.90;48.91;99602.28;4989609;28;20054;-76
2023/03/22 09:40:45;;;;;;;0.50;0.50;;;;;;;8.86;48.88;99591.09;5006111;28;20183;-75
2023/03/22 09:43:14;;;;;;;0.30;0.30;;;;;;;9.52;47.11;99607.84;4991947;28;20052;-75
2023/03/22 09:45:45;;;;;;;0.20;0.20;;;;;;;9.76;46.33;99604.59;4994684;28;20540;-76
2023/03/22 09:48:16;;;;;;;0.20;0.20;;;;;;;9.50;46.42;99605.38;5007920;28;20091;-76
2023/03/22 09:50:47;;;;;;;0.20;0.20;;;;;;;8.78;48.14;99611.53;5024864;28;20046;-75
2023/03/22 09:53:15;;;;;;;0.20;0.20;;;;;;;8.54;48.97;99616.59;4976909;28;20054;-75
2023/03/22 09:55:46;;;;;;;0.25;0.25;;;;;;;8.42;49.40;99603.19;4973497;28;20053;-70
2023/03/22 09:58:23;;;;;;;0.20;0.20;;;;;;;8.15;50.00;99611.47;4988936;28;20047;-75
2023/03/22 10:00:55;;;;;;;0.20;0.20;;;;;;;8.21;50.23;99611.25;4981675;28;20518;-76
2023/03/22 10:03:38;;;;;;;0.28;0.28;;;;;;;8.49;49.42;99608.38;4985152;28;20049;-75
2023/03/22 10:06:09;;;;;;;0.20;0.20;;;;;;;8.58;48.93;99603.28;4989995;28;20148;-75
2023/03/22 10:08:46;;;;;;;0.20;0.20;;;;;;;8.46;49.29;99590.66;4987065;28;20177;-75
2023/03/22 10:11:20;;;;;;;0.10;0.10;;;;;;;8.28;49.91;99605.56;5000927;28;20050;-75
2023/03/22 10:13:59;;;;;;;0.20;0.20;;;;;;;8.09;49.96;99611.44;5006712;28;20050;-75
2023/03/22 10:16:28;;;;;;;0.30;0.30;;;;;;;8.00;50.24;99607.56;5007805;28;20072;-75
2023/03/22 10:19:00;;;;;;;0.20;0.20;;;;;;;8.19;49.86;99601.69;5008218;28;20046;-75
2023/03/22 10:21:28;;;;;;;0.20;0.20;;;;;;;8.02;50.33;99607.28;4994884;28;20058;-75
2023/03/22 10:23:57;;;;;;;0.20;0.20;;;;;;;7.90;50.63;99600.16;5006650;28;20053;-75
2023/03/22 10:26:29;;;;;;;0.15;0.15;;;;;;;7.72;51.09;99604.09;5007030;28;20420;-76
2023/03/22 10:29:02;;;;;;;0.20;0.20;;;;;;;7.62;51.51;99606.75;5007744;28;20053;-75
2023/03/22 10:31:29;;;;;;;0.20;0.20;;;;;;;7.50;51.67;99612.38;5006002;28;20049;-76
2023/03/22 10:33:58;;;;;;;0.20;0.20;;;;;;;7.27;52.15;99608.06;4999411;28;20133;-75
2023/03/22 10:36:30;;;;;;;0.20;0.20;;;;;;;7.02;52.68;99596.69;4999126;28;20065;-75
2023/03/22 10:39:02;;;;;;;0.10;0.10;;;;;;;6.98;52.98;99614.59;4994957;28;20039;-70
2023/03/22 10:41:31;;;;;;;0.20;0.20;;;;;;;6.88;53.36;99609.03;5009769;28;20104;-70
2023/03/22 10:44:02;;;;;;;0.45;0.22;;;;;;;6.76;53.35;99606.47;5007595;28;20056;-70
2023/03/22 10:46:34;;;;;;;0.20;0.20;;;;;;;6.79;53.36;99598.63;5007805;28;20532;-70
2023/03/22 10:49:06;;;;;;;0.20;0.20;;;;;;;6.95;53.14;99606.97;5006843;28;20516;-70
2023/03/22 10:51:39;;;;;;;0.20;0.20;;;;;;;7.24;52.57;99604.78;5003605;28;20496;-70
2023/03/22 10:54:11;;;;;;;0.20;0.20;;;;;;;7.56;51.79;99596.91;5005476;28;20045;-70
2023/03/22 10:56:37;;;;;;;0.20;0.20;;;;;;;7.99;50.83;99597.78;5007878;28;20046;-70
2023/03/22 10:59:05;;;;;;;0.20;0.20;;;;;;;8.30;50.13;99600.66;5007281;28;20054;-70
2023/03/22 11:01:44;;;;;;;0.20;0.20;;;;;;;8.31;49.92;99599.59;5007419;28;20038;-70
2023/03/22 11:04:13;;;;;;;0.20;0.20;;;;;;;8.32;49.63;99600.38;4999573;28;20068;-70
2023/03/22 11:06:48;;;;;;;0.25;0.25;;;;;;;8.12;49.52;99606.53;5006341;28;20064;-70
2023/03/22 11:09:17;;;;;;;0.20;0.20;;;;;;;8.18;49.98;99600.84;5001998;28;20072;-70
2023/03/22 11:11:49;;;;;;;0.38;0.25;;;;;;;8.18;49.91;99598.13;5005174;28;20116;-70
2023/03/22 11:14:30;;;;;;;0.20;0.20;;;;;;;8.02;49.86;99594.50;4987925;28;20053;-70
2023/03/22 11:17:00;;;;;;;0.20;0.20;;;;;;;8.02;50.14;99602.69;4986807;28;20050;-71
2023/03/22 11:19:32;;;;;;;0.20;0.20;;;;;;;8.04;49.93;99608.69;5005685;28;20050;-70
2023/03/22 11:21:59;;;;;;;0.20;0.20;;;;;;;7.91;50.02;99601.81;4998848;28;20049;-70
2023/03/22 11:24:29;;;;;;;0.10;0.10;;;;;;;7.60;50.58;99604.28;5005882;28;20521;-70
2023/03/22 11:27:04;;;;;;;0.10;0.10;;;;;;;7.38;51.11;99602.47;4994267;28;20054;-75
2023/03/22 11:29:41;;;;;;;0.20;0.20;;;;;;;7.18;51.33;99605.00;5003760;28;20522;-75
2023/03/22 11:32:20;;;;;;;0.13;0.13;;;;;;;7.12;51.71;99598.69;4997558;28;20069;-75
2023/03/22 11:34:46;;;;;;;0.10;0.10;;;;;;;6.99;52.21;99597.22;4987787;28;20050;-75
2023/03/22 11:37:16;;;;;;;0.20;0.20;;;;;;;6.80;52.56;99597.56;4971626;28;20048;-75
2023/03/22 11:39:46;;;;;;;0.25;0.20;;;;;;;6.85;52.87;99598.69;4987108;28;20455;-75
2023/03/22 11:42:19;;;;;;;0.20;0.20;;;;;;;6.95;52.54;99587.94;4989152;28;20054;-75
2023/03/22 11:44:46;;;;;;;0.10;0.10;;;;;;;6.87;52.89;99580.22;5005425;28;20144;-75
2023/03/22 11:47:13;;;;;;;;;;;;;;;6.77;53.25;99587.19;5004790;28;20108;-75
2023/03/22 11:49:44;;;;;;;0.10;0.10;;;;;;;6.59;53.66;99582.91;4987326;28;19925;-75
2023/03/22 11:52:16;;;;;;;0.13;0.13;;;;;;;6.57;54.11;99584.22;4989140;28;20050;-75
2023/03/22 11:54:44;;;;;;;0.20;0.20;;;;;;;6.50;54.72;99596.13;4988961;28;20305;-75
2023/03/22 11:57:14;;;;;;;0.10;0.10;;;;;;;6.36;55.79;99594.84;4987832;28;20405;-75
2023/03/22 11:59:49;;;;;;;0.20;0.20;;;;;;;6.28;56.85;99596.09;4986838;28;20050;-75
2023/03/22 12:02:22;;;;;;;0.10;0.10;;;;;;;6.30;57.15;99599.38;4989312;28;20109;-75
2023/03/22 12:04:55;;;;;;;0.20;0.20;;;;;;;6.41;57.24;99599.53;4988372;28;20165;-76
2023/03/22 12:07:23;;;;;;;0.20;0.20;;;;;;;6.62;56.86;99593.25;4988675;28;20437;-75